createdAt,value
2022-12-23T00:01:24.570Z,62.45
2022-12-23T00:03:57.351Z,62.42
2022-12-23T00:06:25.553Z,68.88
2022-12-23T00:08:58.702Z,62.65
2022-12-23T00:11:28.124Z,65.25
2022-12-23T00:14:20.395Z,68.03
2022-12-23T00:16:51.356Z,70.22
2022-12-23T00:19:20.880Z,63.83
2022-12-23T00:21:49.392Z,67.03
2022-12-23T00:24:17.313Z,61.88
2022-12-23T00:26:45.149Z,58.03
2022-12-23T00:29:13.054Z,61.35
2022-12-23T00:31:41.070Z,61.92
2022-12-23T00:34:10.432Z,60.83
2022-12-23T00:36:40.926Z,65.80
2022-12-23T00:39:30.740Z,61.35
2022-12-23T00:42:27.756Z,58.35
2022-12-23T00:45:15.729Z,61.00
2022-12-23T00:48:01.918Z,65.65
2022-12-23T00:50:30.742Z,61.22
2022-12-23T00:53:00.365Z,69.53
2022-12-23T00:55:28.464Z,63.05
2022-12-23T00:57:56.496Z,66.68
2022-12-23T01:00:45.295Z,64.15
2022-12-23T01:03:28.461Z,65.88
2022-12-23T01:05:59.284Z,67.90
2022-12-23T01:08:29.008Z,64.65
2022-12-23T01:10:56.992Z,70.65
2022-12-23T01:13:25.028Z,58.20
2022-12-23T01:15:52.908Z,65.18
2022-12-23T01:18:20.817Z,69.57
2022-12-23T01:20:48.731Z,66.25
2022-12-23T01:23:16.620Z,79.53
2022-12-23T01:25:45.835Z,68.00
2022-12-23T01:28:13.731Z,68.15
2022-12-23T01:30:41.668Z,71.70
2022-12-23T01:33:09.695Z,65.75
2022-12-23T01:35:37.657Z,67.22
2022-12-23T01:38:05.534Z,68.22
2022-12-23T01:40:36.429Z,74.13
2022-12-23T01:43:04.773Z,66.82
2022-12-23T01:45:34.559Z,69.63
2022-12-23T01:48:06.115Z,67.82
2022-12-23T01:50:37.595Z,67.38
2022-12-23T01:53:09.472Z,64.70
2022-12-23T01:55:41.605Z,65.75
2022-12-23T01:58:14.360Z,62.60
2022-12-23T02:01:01.184Z,68.70
2022-12-23T02:03:44.848Z,69.25
2022-12-23T02:06:36.630Z,69.47
2022-12-23T02:09:20.238Z,64.57
2022-12-23T02:12:21.461Z,59.90
2022-12-23T02:15:36.232Z,67.43
2022-12-23T02:18:21.923Z,64.40
2022-12-23T02:21:18.110Z,68.60
2022-12-23T02:24:17.510Z,56.35
2022-12-23T02:27:08.615Z,63.90
2022-12-23T02:30:04.437Z,58.92
2022-12-23T02:32:44.859Z,66.88
2022-12-23T02:35:15.950Z,62.58
2022-12-23T02:37:53.035Z,67.03
2022-12-23T02:40:30.232Z,63.92
2022-12-23T02:43:03.679Z,67.78
2022-12-23T02:45:37.736Z,68.07
2022-12-23T02:48:13.266Z,63.63
2022-12-23T02:50:44.167Z,65.93
2022-12-23T02:53:20.106Z,58.63
2022-12-23T02:55:50.316Z,60.20
2022-12-23T02:58:22.135Z,64.55
2022-12-23T03:00:51.686Z,64.18
2022-12-23T03:03:22.329Z,62.75
2022-12-23T03:05:52.306Z,59.85
2022-12-23T03:08:25.105Z,66.15
2022-12-23T03:11:04.547Z,61.05
2022-12-23T03:13:48.573Z,61.50
2022-12-23T03:16:23.588Z,62.60
2022-12-23T03:19:09.071Z,62.85
2022-12-23T03:21:44.371Z,59.90
2022-12-23T03:24:23.155Z,63.63
2022-12-23T03:26:56.779Z,59.10
2022-12-23T03:29:29.636Z,56.60
2022-12-23T03:32:00.880Z,58.40
2022-12-23T03:34:35.334Z,54.63
2022-12-23T03:37:07.425Z,61.38
2022-12-23T03:39:39.630Z,60.63
2022-12-23T03:42:14.374Z,59.90
2022-12-23T03:45:19.107Z,60.17
2022-12-23T03:47:44.580Z,63.50
2022-12-23T03:50:16.706Z,69.40
2022-12-23T03:52:51.460Z,52.47
2022-12-23T03:55:25.137Z,60.72
2022-12-23T03:57:59.812Z,63.65
2022-12-23T04:00:31.415Z,60.58
2022-12-23T04:03:07.165Z,57.08
2022-12-23T04:05:40.644Z,60.28
2022-12-23T04:08:14.434Z,57.20
2022-12-23T04:10:42.869Z,61.22
2022-12-23T04:13:11.045Z,60.65
2022-12-23T04:15:41.196Z,59.70
2022-12-23T04:18:10.717Z,62.50
2022-12-23T04:20:40.032Z,52.28
2022-12-23T04:23:07.949Z,54.78
2022-12-23T04:25:36.311Z,64.28
2022-12-23T04:28:04.519Z,56.55
2022-12-23T04:30:34.757Z,54.55
2022-12-23T04:33:03.440Z,52.35
2022-12-23T04:35:31.874Z,55.50
2022-12-23T04:38:01.285Z,52.53
2022-12-23T04:40:29.246Z,49.33
2022-12-23T04:42:57.169Z,47.22
2022-12-23T04:45:25.031Z,46.95
2022-12-23T04:47:54.449Z,51.83
2022-12-23T04:50:22.437Z,45.58
2022-12-23T04:52:50.606Z,47.30
2022-12-23T04:55:20.100Z,48.63
2022-12-23T04:57:47.938Z,48.50
2022-12-23T05:00:16.766Z,51.42
2022-12-23T05:02:44.804Z,51.83
2022-12-23T05:05:12.867Z,47.13
2022-12-23T05:07:40.767Z,54.72
2022-12-23T05:10:10.029Z,48.47
2022-12-23T05:12:39.314Z,50.30
2022-12-23T05:15:09.060Z,56.88
2022-12-23T05:17:36.946Z,52.33
2022-12-23T05:20:05.183Z,52.65
2022-12-23T05:22:33.094Z,52.88
2022-12-23T05:25:01.027Z,51.67
2022-12-23T05:27:29.068Z,55.70
2022-12-23T05:29:58.326Z,51.17
2022-12-23T05:32:26.269Z,57.97
2022-12-23T05:34:54.085Z,59.72
2022-12-23T05:37:22.198Z,51.60
2022-12-23T05:39:50.130Z,54.20
2022-12-23T05:42:19.455Z,54.65
2022-12-23T05:44:47.540Z,59.42
2022-12-23T05:47:16.842Z,58.13
2022-12-23T05:49:44.819Z,57.45
2022-12-23T05:52:12.904Z,55.03
2022-12-23T05:54:41.875Z,55.03
2022-12-23T05:57:09.747Z,48.80
2022-12-23T05:59:37.613Z,47.75
2022-12-23T06:02:06.462Z,54.00
2022-12-23T06:04:35.992Z,48.75
2022-12-23T06:07:03.853Z,52.75
2022-12-23T06:09:32.023Z,49.95
2022-12-23T06:11:59.932Z,45.60
2022-12-23T06:14:29.374Z,45.60
2022-12-23T06:16:57.640Z,50.08
2022-12-23T06:19:25.788Z,54.80
2022-12-23T06:21:55.036Z,45.05
2022-12-23T06:24:23.335Z,49.03
2022-12-23T06:26:56.700Z,51.80
2022-12-23T06:29:25.186Z,49.92
2022-12-23T06:31:53.461Z,50.55
2022-12-23T06:34:21.438Z,49.60
2022-12-23T06:36:49.383Z,49.15
2022-12-23T06:39:18.619Z,52.10
2022-12-23T06:41:46.658Z,54.63
2022-12-23T06:44:14.666Z,49.75
2022-12-23T06:46:42.858Z,54.80
2022-12-23T06:49:13.382Z,56.05
2022-12-23T06:51:42.293Z,56.47
2022-12-23T06:54:11.701Z,56.90
2022-12-23T06:56:41.200Z,52.60
2022-12-23T06:59:09.174Z,59.90
2022-12-23T07:01:37.226Z,54.15
2022-12-23T07:04:05.469Z,54.38
2022-12-23T07:06:33.585Z,53.10
2022-12-23T07:09:01.475Z,54.30
2022-12-23T07:11:29.481Z,56.92
2022-12-23T07:13:59.476Z,53.63
2022-12-23T07:16:27.677Z,57.97
2022-12-23T07:18:55.547Z,56.28
2022-12-23T07:21:28.877Z,49.47
2022-12-23T07:23:58.197Z,53.47
2022-12-23T07:26:26.097Z,52.95
2022-12-23T07:28:53.897Z,46.38
2022-12-23T07:31:23.503Z,55.33
2022-12-23T07:33:51.420Z,56.22
2022-12-23T07:36:19.363Z,57.45
2022-12-23T07:38:50.613Z,47.35
2022-12-23T07:41:18.597Z,45.08
2022-12-23T07:43:47.044Z,48.58
2022-12-23T07:46:15.385Z,43.63
2022-12-23T07:48:44.785Z,46.67
2022-12-23T07:51:12.644Z,47.10
2022-12-23T07:53:40.607Z,44.63
2022-12-23T07:56:09.185Z,44.70
2022-12-23T07:58:37.089Z,46.95
2022-12-23T08:01:09.047Z,48.53
2022-12-23T08:03:38.184Z,45.45
2022-12-23T08:06:09.729Z,45.92
2022-12-23T08:08:38.524Z,37.88
2022-12-23T08:11:08.588Z,47.67
2022-12-23T08:13:38.439Z,39.20
2022-12-23T08:16:08.439Z,43.55
2022-12-23T08:18:37.946Z,37.65
2022-12-23T08:21:09.312Z,39.00
2022-12-23T08:23:37.471Z,33.08
2022-12-23T08:26:07.557Z,37.97
2022-12-23T08:28:36.319Z,40.97
2022-12-23T08:31:06.612Z,44.60
2022-12-23T08:33:35.065Z,39.90
2022-12-23T08:36:03.631Z,38.92
2022-12-23T08:38:34.592Z,37.17
2022-12-23T08:41:02.660Z,35.65
2022-12-23T08:43:35.859Z,37.28
2022-12-23T08:46:05.957Z,38.63
2022-12-23T08:48:34.868Z,36.80
2022-12-23T08:51:07.069Z,32.53
2022-12-23T08:53:38.148Z,42.00
2022-12-23T08:56:07.901Z,44.13
2022-12-23T08:58:37.780Z,47.20
2022-12-23T09:01:07.017Z,43.22
2022-12-23T09:03:35.661Z,37.72
2022-12-23T09:06:05.960Z,34.08
2022-12-23T09:08:33.817Z,44.10
2022-12-23T09:11:03.349Z,38.83
2022-12-23T09:13:35.521Z,39.22
2022-12-23T09:16:04.167Z,40.85
2022-12-23T09:20:40.674Z,46.20
2022-12-23T09:23:08.657Z,42.33
2022-12-23T09:25:37.881Z,39.50
2022-12-23T09:28:07.420Z,44.00
2022-12-23T09:30:35.440Z,46.10
2022-12-23T09:33:03.907Z,42.92
2022-12-23T09:35:33.316Z,40.33
2022-12-23T09:38:02.652Z,44.20
2022-12-23T09:40:33.292Z,45.88
2022-12-23T09:43:14.144Z,37.90
2022-12-23T09:45:57.509Z,37.90
2022-12-23T09:48:30.849Z,35.60
2022-12-23T09:50:59.106Z,41.30
2022-12-23T09:53:46.107Z,42.17
2022-12-23T09:56:19.583Z,38.63
2022-12-23T10:01:24.509Z,33.60
2022-12-23T10:04:20.572Z,32.53
2022-12-23T10:06:56.305Z,33.47
2022-12-23T10:09:29.928Z,33.72
2022-12-23T10:11:59.309Z,38.88
2022-12-23T10:14:32.124Z,37.08
2022-12-23T10:17:07.895Z,40.55
2022-12-23T10:19:41.939Z,38.75
2022-12-23T10:22:16.863Z,33.97
2022-12-23T10:24:48.002Z,40.03
2022-12-23T10:27:24.287Z,38.97
2022-12-23T10:29:52.629Z,40.95
2022-12-23T10:32:28.016Z,40.80
2022-12-23T10:35:01.895Z,39.83
2022-12-23T10:37:35.620Z,35.45
2022-12-23T10:42:46.954Z,31.95
2022-12-23T10:45:39.639Z,32.60
2022-12-23T10:48:24.102Z,32.58
2022-12-23T10:50:59.628Z,30.60
2022-12-23T10:53:36.714Z,30.25
2022-12-23T10:56:08.491Z,30.02
2022-12-23T10:58:39.467Z,32.30
2022-12-23T11:01:15.253Z,30.85
2022-12-23T11:03:57.398Z,30.48
2022-12-23T11:06:28.991Z,33.33
2022-12-23T11:09:03.919Z,33.22
2022-12-23T11:12:01.511Z,34.13
2022-12-23T11:14:36.980Z,34.30
2022-12-23T11:17:06.705Z,28.38
2022-12-23T11:19:35.091Z,31.08
2022-12-23T11:22:03.481Z,26.67
2022-12-23T11:24:38.029Z,28.45
2022-12-23T11:27:16.773Z,28.88
2022-12-23T11:29:48.038Z,30.65
2022-12-23T11:32:19.590Z,31.10
2022-12-23T11:34:49.440Z,27.00
2022-12-23T11:37:33.087Z,31.17
2022-12-23T11:40:01.292Z,27.10
2022-12-23T11:42:31.976Z,34.50
2022-12-23T11:45:01.349Z,22.98
2022-12-23T11:47:34.180Z,22.63
2022-12-23T11:50:05.384Z,22.92
2022-12-23T11:52:35.231Z,26.85
2022-12-23T11:55:08.217Z,30.17
2022-12-23T11:57:42.894Z,23.45
2022-12-23T12:00:22.314Z,30.63
2022-12-23T12:02:53.960Z,30.02
2022-12-23T12:05:27.258Z,34.58
2022-12-23T12:08:01.076Z,29.98
2022-12-23T12:10:31.575Z,33.92
2022-12-23T12:13:04.904Z,23.55
2022-12-23T12:15:42.660Z,23.05
2022-12-23T12:18:14.386Z,22.05
2022-12-23T12:20:46.095Z,24.15
2022-12-23T12:23:19.321Z,26.20
2022-12-23T12:25:52.112Z,28.77
2022-12-23T12:28:27.115Z,21.80
2022-12-23T12:31:02.245Z,20.48
2022-12-23T12:33:37.431Z,22.63
2022-12-23T12:36:13.640Z,25.83
2022-12-23T12:38:41.791Z,22.50
2022-12-23T12:41:18.112Z,30.40
2022-12-23T12:43:54.370Z,21.67
2022-12-23T12:46:31.872Z,21.10
2022-12-23T12:49:07.207Z,21.17
2022-12-23T12:51:41.392Z,25.30
2022-12-23T12:54:20.880Z,24.88
2022-12-23T12:56:51.388Z,23.67
2022-12-23T12:59:26.773Z,26.00
2022-12-23T13:02:05.318Z,25.17
2022-12-23T13:05:00.673Z,26.65
2022-12-23T13:07:39.411Z,25.10
2022-12-23T13:10:16.109Z,24.17
2022-12-23T13:12:58.267Z,26.67
2022-12-23T13:15:34.488Z,27.58
2022-12-23T13:18:17.289Z,32.03
2022-12-23T13:20:53.501Z,28.67
2022-12-23T13:23:44.791Z,29.42
2022-12-23T13:26:27.941Z,31.60
2022-12-23T13:29:04.523Z,29.90
2022-12-23T13:31:48.127Z,29.73
2022-12-23T13:34:31.342Z,31.85
2022-12-23T13:37:09.691Z,29.83
2022-12-23T13:39:51.017Z,35.63
2022-12-23T13:42:26.344Z,36.20
2022-12-23T13:44:56.304Z,39.42
2022-12-23T13:47:35.263Z,33.55
2022-12-23T13:50:10.089Z,33.28
2022-12-23T13:52:55.662Z,41.00
2022-12-23T13:55:40.140Z,34.65
2022-12-23T13:58:14.670Z,29.45
2022-12-23T14:00:43.058Z,37.35
2022-12-23T14:03:25.858Z,37.50
2022-12-23T14:05:54.834Z,33.17
2022-12-23T14:08:32.559Z,30.73
2022-12-23T14:11:03.377Z,35.05
2022-12-23T14:13:35.112Z,37.25
2022-12-23T14:16:31.584Z,30.17
2022-12-23T14:19:30.890Z,39.10
2022-12-23T14:22:10.867Z,40.53
2022-12-23T14:25:06.569Z,41.70
2022-12-23T14:27:48.079Z,34.78
2022-12-23T14:30:18.477Z,37.78
2022-12-23T14:32:49.526Z,43.38
2022-12-23T14:35:24.739Z,41.17
2022-12-23T14:38:37.791Z,47.83
2022-12-23T14:41:25.240Z,39.53
2022-12-23T14:44:02.828Z,46.40
2022-12-23T14:46:58.882Z,41.10
2022-12-23T14:49:47.721Z,39.70
2022-12-23T14:52:44.613Z,40.22
2022-12-23T14:55:41.034Z,35.00
2022-12-23T14:58:22.375Z,39.90
2022-12-23T15:00:56.805Z,46.80
2022-12-23T15:03:24.870Z,34.33
2022-12-23T15:05:53.470Z,36.85
2022-12-23T15:08:32.086Z,36.17
2022-12-23T15:11:01.001Z,35.95
2022-12-23T15:13:31.128Z,32.17
2022-12-23T15:16:01.770Z,38.05
2022-12-23T15:18:30.385Z,41.95
2022-12-23T15:21:04.569Z,30.17
2022-12-23T15:23:34.320Z,28.88
2022-12-23T15:26:03.663Z,34.38
2022-12-23T15:28:38.431Z,33.70
2022-12-23T15:31:08.219Z,36.50
2022-12-23T15:34:02.857Z,31.85
2022-12-23T15:36:32.345Z,25.20
2022-12-23T15:39:04.130Z,32.70
2022-12-23T15:41:32.779Z,27.45
2022-12-23T15:44:01.974Z,28.00
2022-12-23T15:46:32.604Z,28.70
2022-12-23T15:49:00.947Z,24.50
2022-12-23T15:54:28.983Z,34.03
2022-12-23T15:56:59.213Z,28.40
2022-12-23T15:59:33.020Z,29.25
2022-12-23T16:02:40.381Z,32.83
2022-12-23T16:05:00.440Z,28.65
2022-12-23T16:07:34.319Z,37.67
2022-12-23T16:10:06.258Z,34.35
2022-12-23T16:12:35.733Z,38.30
2022-12-23T16:15:04.773Z,35.60
2022-12-23T16:17:34.946Z,30.17
2022-12-23T16:20:21.658Z,33.67
2022-12-23T16:22:52.933Z,34.58
2022-12-23T16:25:26.192Z,34.65
2022-12-23T16:27:58.686Z,35.47
2022-12-23T16:30:33.138Z,39.55
2022-12-23T16:33:04.001Z,40.20
2022-12-23T16:35:38.890Z,30.48
2022-12-23T16:38:17.410Z,43.22
2022-12-23T16:40:48.554Z,42.97
2022-12-23T16:43:17.481Z,34.95
2022-12-23T16:45:46.634Z,43.80
2022-12-23T16:48:21.355Z,37.70
2022-12-23T16:50:56.090Z,32.60
2022-12-23T16:53:23.990Z,36.60
2022-12-23T16:55:58.510Z,34.53
2022-12-23T16:58:28.950Z,36.15
2022-12-23T17:00:58.333Z,35.78
2022-12-23T17:04:16.342Z,28.95
2022-12-23T17:06:46.828Z,34.83
2022-12-23T17:09:15.263Z,37.00
2022-12-23T17:11:46.261Z,36.67
2022-12-23T17:14:18.556Z,34.53
2022-12-23T17:16:47.147Z,33.75
2022-12-23T17:19:23.344Z,33.97
2022-12-23T17:22:00.890Z,34.42
2022-12-23T17:24:29.074Z,32.67
2022-12-23T17:26:58.684Z,28.25
2022-12-23T17:29:27.061Z,27.90
2022-12-23T17:31:55.505Z,30.70
2022-12-23T17:34:25.349Z,30.45
2022-12-23T17:36:53.543Z,28.88
2022-12-23T17:39:22.726Z,31.55
2022-12-23T17:41:51.287Z,31.13
2022-12-23T17:44:20.869Z,38.47
2022-12-23T17:46:49.088Z,34.25
2022-12-23T17:49:17.250Z,40.67
2022-12-23T17:51:45.663Z,33.65
2022-12-23T17:54:22.655Z,35.17
2022-12-23T17:56:51.047Z,36.67
2022-12-23T17:59:20.396Z,33.30
2022-12-23T18:01:48.399Z,35.03
2022-12-23T18:04:16.610Z,42.33
2022-12-23T18:06:44.693Z,36.47
2022-12-23T18:09:12.584Z,34.65
2022-12-23T18:11:43.350Z,34.55
2022-12-23T18:14:17.388Z,38.75
2022-12-23T18:16:47.334Z,37.88
2022-12-23T18:19:18.822Z,37.42
2022-12-23T18:21:47.536Z,33.78
2022-12-23T18:24:15.854Z,35.78
2022-12-23T18:26:44.229Z,29.55
2022-12-23T18:29:12.221Z,31.30
2022-12-23T18:31:51.049Z,38.88
2022-12-23T18:34:20.630Z,35.15
2022-12-23T18:36:51.531Z,31.83
2022-12-23T18:39:20.030Z,34.50
2022-12-23T18:41:48.138Z,33.58
2022-12-23T18:44:18.369Z,33.08
2022-12-23T18:46:48.219Z,31.02
2022-12-23T18:49:16.273Z,30.05
2022-12-23T18:51:44.149Z,36.17
2022-12-23T18:54:14.779Z,32.65
2022-12-23T18:56:43.269Z,32.38
2022-12-23T18:59:16.695Z,35.13
2022-12-23T19:01:44.688Z,35.85
2022-12-23T19:04:14.261Z,33.40
2022-12-23T19:06:42.415Z,30.02
2022-12-23T19:09:15.725Z,30.25
2022-12-23T19:11:43.772Z,35.28
2022-12-23T19:14:12.829Z,30.27
2022-12-23T19:16:44.659Z,31.38
2022-12-23T19:19:16.892Z,29.55
2022-12-23T19:21:44.847Z,30.95
2022-12-23T19:24:12.775Z,32.85
2022-12-23T19:26:40.679Z,26.52
2022-12-23T19:29:10.395Z,27.55
2022-12-23T19:31:38.546Z,30.90
2022-12-23T19:34:11.201Z,26.92
2022-12-23T19:36:44.734Z,33.28
2022-12-23T19:39:16.184Z,29.30
2022-12-23T19:41:44.739Z,27.70
2022-12-23T19:44:12.618Z,29.67
2022-12-23T19:46:40.493Z,28.80
2022-12-23T19:49:09.946Z,27.73
2022-12-23T19:51:39.758Z,30.98
2022-12-23T19:54:09.494Z,29.13
2022-12-23T19:56:37.457Z,31.45
2022-12-23T19:59:05.531Z,30.40
2022-12-23T20:01:33.834Z,36.20
2022-12-23T20:04:01.892Z,27.30
2022-12-23T20:06:34.118Z,28.63
2022-12-23T20:09:04.223Z,30.85
2022-12-23T20:11:36.896Z,34.75
2022-12-23T20:14:05.803Z,34.13
2022-12-23T20:16:35.277Z,30.30
2022-12-23T20:19:04.054Z,36.85
2022-12-23T20:21:32.153Z,29.58
2022-12-23T20:24:00.100Z,33.40
2022-12-23T20:26:29.187Z,34.65
2022-12-23T20:28:58.892Z,35.42
2022-12-23T20:31:28.609Z,31.50
2022-12-23T20:33:57.987Z,30.40
2022-12-23T20:36:28.554Z,33.22
2022-12-23T20:38:57.020Z,32.67
2022-12-23T20:41:27.202Z,36.38
2022-12-23T20:46:45.083Z,30.48
2022-12-23T20:49:13.655Z,27.80
2022-12-23T20:51:41.695Z,33.72
2022-12-23T20:54:09.791Z,35.97
2022-12-23T20:56:37.862Z,28.92
2022-12-23T20:59:05.757Z,32.25
2022-12-23T21:01:36.238Z,28.17
2022-12-23T21:04:08.445Z,28.35
2022-12-23T21:06:37.400Z,30.00
2022-12-23T21:09:07.042Z,27.75
2022-12-23T21:11:40.346Z,26.48
2022-12-23T21:14:08.464Z,31.83
2022-12-23T21:16:37.425Z,29.98
2022-12-23T21:19:07.867Z,30.70
2022-12-23T21:21:36.209Z,34.95
2022-12-23T21:24:05.774Z,31.05
2022-12-23T21:26:35.134Z,28.60
2022-12-23T21:29:05.706Z,32.17
2022-12-23T21:31:35.189Z,33.50
2022-12-23T21:34:03.817Z,28.15
2022-12-23T21:36:34.717Z,33.17
2022-12-23T21:39:03.488Z,32.53
2022-12-23T21:41:37.339Z,30.25
2022-12-23T21:44:06.492Z,29.35
2022-12-23T21:46:35.171Z,30.38
2022-12-23T21:49:04.095Z,37.45
2022-12-23T21:51:40.022Z,29.45
2022-12-23T21:54:10.080Z,29.20
2022-12-23T21:56:39.008Z,40.35
2022-12-23T21:59:08.544Z,29.88
2022-12-23T22:01:36.489Z,27.05
2022-12-23T22:04:05.153Z,33.03
2022-12-23T22:06:37.233Z,28.58
2022-12-23T22:09:06.561Z,30.60
2022-12-23T22:11:37.023Z,29.30
2022-12-23T22:14:06.914Z,31.33
2022-12-23T22:16:36.147Z,27.25
2022-12-23T22:19:05.677Z,27.13
2022-12-23T22:21:36.722Z,30.70
2022-12-23T22:24:05.493Z,28.38
2022-12-23T22:26:34.545Z,28.17
2022-12-23T22:29:06.618Z,26.52
2022-12-23T22:31:38.142Z,31.38
2022-12-23T22:34:07.662Z,26.25
2022-12-23T22:36:37.369Z,27.13
2022-12-23T22:39:07.784Z,30.00
2022-12-23T22:41:36.383Z,24.75
2022-12-23T22:44:04.876Z,31.40
2022-12-23T22:46:33.117Z,28.23
2022-12-23T22:49:01.036Z,27.85
2022-12-23T22:51:32.037Z,30.80
2022-12-23T22:54:03.356Z,24.88
2022-12-23T22:56:31.506Z,26.40
2022-12-23T22:58:59.658Z,24.75
2022-12-23T23:01:29.547Z,25.38
2022-12-23T23:03:58.991Z,26.13
2022-12-23T23:06:30.786Z,25.33
2022-12-23T23:08:58.917Z,24.15
2022-12-23T23:11:29.123Z,27.83
2022-12-23T23:13:58.171Z,23.33
2022-12-23T23:16:27.376Z,27.08
2022-12-23T23:18:55.633Z,24.25
2022-12-23T23:21:23.681Z,25.00
2022-12-23T23:23:51.771Z,22.23
2022-12-23T23:26:20.824Z,25.45
2022-12-23T23:28:50.146Z,24.17
2022-12-23T23:34:05.862Z,25.85
2022-12-23T23:36:33.951Z,23.05
2022-12-23T23:39:02.327Z,22.30
2022-12-23T23:41:31.070Z,20.58
2022-12-23T23:44:00.279Z,21.52
2022-12-23T23:46:28.204Z,21.20
2022-12-23T23:48:56.041Z,23.30
2022-12-23T23:51:24.492Z,22.80
2022-12-23T23:53:52.434Z,22.00
2022-12-23T23:56:25.433Z,24.15
2022-12-23T23:58:54.460Z,24.30
